createdAt,value
2019-04-23T00:01:07.897Z,10.37
2019-04-23T00:03:34.506Z,10.87
2019-04-23T00:06:11.518Z,11.63
2019-04-23T00:08:42.113Z,11.03
2019-04-23T00:11:08.672Z,10.83
2019-04-23T00:13:37.168Z,17.77
2019-04-23T00:16:12.847Z,13.53
2019-04-23T00:21:24.819Z,11.40
2019-04-23T00:24:03.044Z,13.57
2019-04-23T00:29:02.238Z,12.23
2019-04-23T00:31:24.673Z,12.50
2019-04-23T00:33:57.347Z,10.03
2019-04-23T00:36:32.461Z,11.97
2019-04-23T00:38:59.285Z,12.63
2019-04-23T00:41:31.165Z,10.80
2019-04-23T00:44:04.472Z,9.43
2019-04-23T00:49:06.071Z,10.63
2019-04-23T00:51:33.178Z,10.83
2019-04-23T00:54:08.665Z,13.03
2019-04-23T00:59:08.861Z,12.10
2019-04-23T01:01:44.458Z,13.13
2019-04-23T01:04:12.042Z,12.87
2019-04-23T01:06:39.109Z,12.60
2019-04-23T01:09:10.430Z,11.20
2019-04-23T01:11:40.030Z,10.23
2019-04-23T01:14:08.127Z,11.73
2019-04-23T01:16:37.394Z,13.20
2019-04-23T01:19:41.308Z,13.53
2019-04-23T01:21:45.582Z,11.67
2019-04-23T01:24:40.365Z,11.73
2019-04-23T01:30:12.829Z,10.43
2019-04-23T01:37:56.131Z,12.47
2019-04-23T01:40:12.370Z,12.63
2019-04-23T01:45:20.402Z,11.23
2019-04-23T01:47:45.415Z,11.97
2019-04-23T01:55:21.265Z,13.17
2019-04-23T01:58:04.534Z,12.50
2019-04-23T02:00:34.131Z,12.73
2019-04-23T02:02:57.736Z,12.80
2019-04-23T02:05:27.350Z,12.20
2019-04-23T02:10:29.792Z,16.60
2019-04-23T02:15:31.266Z,12.43
2019-04-23T02:17:58.635Z,13.53
2019-04-23T02:20:27.619Z,13.07
2019-04-23T02:23:21.308Z,14.43
2019-04-23T02:25:50.488Z,14.23
2019-04-23T02:28:24.294Z,13.23
2019-04-23T02:31:18.598Z,12.63
2019-04-23T02:33:34.383Z,15.07
2019-04-23T02:36:07.619Z,13.33
2019-04-23T02:38:42.878Z,13.63
2019-04-23T02:43:20.177Z,14.93
2019-04-23T02:48:49.899Z,13.90
2019-04-23T02:51:04.005Z,14.13
2019-04-23T02:53:44.798Z,14.23
2019-04-23T02:56:14.539Z,13.77
2019-04-23T02:58:46.010Z,15.17
2019-04-23T03:01:19.549Z,14.63
2019-04-23T03:13:54.086Z,13.83
2019-04-23T03:25:00.515Z,16.37
2019-04-23T03:27:27.817Z,15.57
2019-04-23T03:37:33.645Z,15.67
2019-04-23T03:42:24.484Z,17.57
2019-04-23T03:45:16.784Z,17.03
2019-04-23T03:55:06.225Z,16.43
2019-04-23T03:57:37.952Z,18.23
2019-04-23T04:00:17.779Z,16.20
2019-04-23T04:05:05.825Z,18.50
2019-04-23T04:09:59.477Z,17.87
2019-04-23T04:12:35.309Z,19.67
2019-04-23T04:15:24.900Z,17.03
2019-04-23T04:17:35.539Z,21.50
2019-04-23T04:20:19.877Z,19.80
2019-04-23T04:25:14.599Z,21.43
2019-04-23T04:27:54.125Z,17.10
2019-04-23T04:32:56.536Z,15.33
2019-04-23T04:37:56.053Z,18.70
2019-04-23T04:40:32.411Z,18.67
2019-04-23T04:43:06.742Z,20.30
2019-04-23T04:47:44.967Z,19.80
2019-04-23T04:50:14.827Z,19.87
2019-04-23T04:53:00.771Z,19.43
2019-04-23T04:55:28.373Z,18.00
2019-04-23T05:00:43.086Z,18.80
2019-04-23T05:03:09.414Z,18.30
2019-04-23T05:15:35.553Z,18.43
2019-04-23T05:20:58.137Z,19.20
2019-04-23T05:23:42.876Z,20.27
2019-04-23T05:26:20.945Z,19.10
2019-04-23T05:31:19.009Z,18.40
2019-04-23T05:33:57.102Z,19.57
2019-04-23T05:36:28.937Z,18.10
2019-04-23T05:46:36.662Z,18.87
2019-04-23T05:48:59.530Z,18.07
2019-04-23T05:51:38.255Z,20.73
2019-04-23T05:53:58.325Z,19.03
2019-04-23T05:56:34.930Z,22.50
2019-04-23T05:59:06.612Z,19.03
2019-04-23T06:04:12.901Z,20.70
2019-04-23T06:06:52.399Z,19.83
2019-04-23T06:11:52.585Z,17.57
2019-04-23T06:14:11.799Z,17.80
2019-04-23T06:16:49.499Z,19.63
2019-04-23T06:19:18.906Z,21.67
2019-04-23T06:21:57.860Z,22.00
2019-04-23T06:29:25.524Z,19.87
2019-04-23T06:31:52.610Z,18.83
2019-04-23T06:34:24.748Z,24.23
2019-04-23T06:36:51.238Z,20.27
2019-04-23T06:39:24.358Z,17.23
2019-04-23T06:41:55.179Z,18.90
2019-04-23T06:50:08.531Z,16.73
2019-04-23T06:52:10.031Z,20.73
2019-04-23T06:54:43.179Z,19.90
2019-04-23T07:04:43.514Z,19.87
2019-04-23T07:07:30.897Z,21.03
2019-04-23T07:09:38.915Z,25.43
2019-04-23T07:12:08.769Z,19.43
2019-04-23T07:14:59.321Z,19.20
2019-04-23T07:17:09.189Z,20.87
2019-04-23T07:19:53.540Z,20.73
2019-04-23T07:24:47.180Z,21.40
2019-04-23T07:27:20.880Z,19.83
2019-04-23T07:29:59.734Z,19.57
2019-04-23T07:32:15.488Z,18.63
2019-04-23T07:35:03.864Z,19.17
2019-04-23T07:37:22.962Z,22.03
2019-04-23T07:40:22.957Z,36.07
2019-04-23T07:43:08.850Z,24.00
2019-04-23T07:46:01.032Z,24.60
2019-04-23T07:48:24.283Z,22.23
2019-04-23T07:50:57.903Z,18.60
2019-04-23T07:53:53.516Z,21.03
2019-04-23T07:56:07.587Z,17.67
2019-04-23T07:58:33.636Z,25.53
2019-04-23T08:01:11.273Z,20.03
2019-04-23T08:06:10.102Z,22.63
2019-04-23T08:08:47.449Z,24.73
2019-04-23T08:18:54.397Z,23.33
2019-04-23T08:21:21.162Z,16.97
2019-04-23T08:26:58.299Z,23.80
2019-04-23T08:29:24.925Z,20.30
2019-04-23T08:32:00.557Z,19.13
2019-04-23T08:34:41.443Z,22.70
2019-04-23T08:37:05.135Z,23.30
2019-04-23T08:39:38.310Z,25.87
2019-04-23T08:42:28.702Z,25.30
2019-04-23T08:45:18.689Z,22.60
2019-04-23T08:48:17.303Z,18.33
2019-04-23T08:50:43.059Z,20.83
2019-04-23T08:53:26.396Z,22.10
2019-04-23T08:55:46.396Z,19.80
2019-04-23T08:58:14.179Z,23.10
2019-04-23T09:05:53.086Z,27.37
2019-04-23T09:08:25.284Z,23.17
2019-04-23T09:10:56.792Z,21.80
2019-04-23T09:13:50.978Z,27.60
2019-04-23T09:20:55.217Z,24.93
2019-04-23T09:23:34.879Z,27.43
2019-04-23T09:31:17.240Z,21.77
2019-04-23T09:33:52.141Z,27.37
2019-04-23T09:39:20.444Z,26.53
2019-04-23T09:42:31.916Z,29.03
2019-04-23T09:45:11.105Z,23.87
2019-04-23T09:48:13.756Z,21.20
2019-04-23T09:50:52.484Z,25.67
2019-04-23T09:53:34.244Z,20.80
2019-04-23T09:55:46.707Z,22.63
2019-04-23T09:58:18.261Z,23.43
2019-04-23T10:01:29.145Z,19.40
2019-04-23T10:03:50.517Z,22.10
2019-04-23T10:06:16.129Z,24.70
2019-04-23T10:08:44.977Z,27.00
2019-04-23T10:11:11.726Z,25.13
2019-04-23T10:13:42.656Z,23.27
2019-04-23T10:16:15.359Z,19.17
2019-04-23T10:18:44.789Z,24.90
2019-04-23T10:21:15.538Z,23.37
2019-04-23T10:23:45.255Z,21.97
2019-04-23T10:26:14.599Z,23.53
2019-04-23T10:29:02.121Z,21.30
2019-04-23T10:31:31.730Z,23.33
2019-04-23T10:34:02.091Z,20.87
2019-04-23T10:36:34.591Z,22.63
2019-04-23T10:39:11.838Z,21.63
2019-04-23T10:41:38.526Z,26.30
2019-04-23T10:44:41.353Z,22.30
2019-04-23T10:48:03.061Z,22.67
2019-04-23T10:50:39.975Z,24.23
2019-04-23T10:53:19.191Z,25.27
2019-04-23T10:55:47.967Z,27.83
2019-04-23T10:58:12.615Z,29.77
2019-04-23T11:00:46.597Z,29.33
2019-04-23T11:03:38.174Z,26.83
2019-04-23T11:05:50.229Z,26.93
2019-04-23T11:08:15.676Z,28.77
2019-04-23T11:10:44.337Z,32.90
2019-04-23T11:13:25.750Z,31.03
2019-04-23T11:16:11.037Z,34.23
2019-04-23T11:18:40.203Z,31.10
2019-04-23T11:20:56.397Z,34.73
2019-04-23T11:23:29.491Z,35.40
2019-04-23T11:25:58.903Z,39.63
2019-04-23T11:28:33.614Z,42.57
2019-04-23T11:31:21.513Z,42.40
2019-04-23T11:33:40.289Z,39.50
2019-04-23T11:36:43.570Z,44.30
2019-04-23T11:41:22.630Z,49.13
2019-04-23T11:44:52.952Z,43.80
2019-04-23T11:49:02.437Z,40.27
2019-04-23T11:53:48.988Z,41.27
2019-04-23T11:56:48.822Z,46.97
2019-04-23T11:59:06.974Z,40.70
2019-04-23T12:07:25.963Z,41.17
2019-04-23T12:12:33.268Z,43.13
2019-04-23T12:17:35.305Z,46.93
2019-04-23T12:22:48.967Z,51.93
2019-04-23T12:25:21.558Z,47.17
2019-04-23T12:27:33.269Z,46.00
2019-04-23T12:30:16.405Z,44.43
2019-04-23T12:33:03.142Z,42.37
2019-04-23T12:35:25.741Z,40.47
2019-04-23T12:40:44.341Z,42.97
2019-04-23T12:43:18.992Z,37.50
2019-04-23T12:45:57.498Z,38.73
2019-04-23T12:53:37.761Z,45.03
2019-04-23T12:55:50.445Z,38.00
2019-04-23T13:00:51.409Z,44.33
2019-04-23T13:03:31.414Z,41.60
2019-04-23T13:05:49.135Z,41.60
2019-04-23T13:11:01.369Z,48.57
2019-04-23T13:16:02.659Z,51.83
2019-04-23T13:18:38.081Z,53.73
2019-04-23T13:21:14.238Z,45.70
2019-04-23T13:23:35.993Z,57.73
2019-04-23T13:26:05.669Z,54.07
2019-04-23T13:29:05.021Z,45.53
2019-04-23T13:33:58.741Z,49.80
2019-04-23T13:36:23.762Z,49.77
2019-04-23T13:39:07.182Z,48.10
2019-04-23T13:46:17.878Z,47.73
2019-04-23T13:48:47.992Z,52.60
2019-04-23T13:51:26.070Z,52.23
2019-04-23T13:53:53.666Z,46.40
2019-04-23T13:59:12.227Z,57.33
2019-04-23T14:01:33.574Z,57.10
2019-04-23T14:04:21.269Z,56.63
2019-04-23T14:06:41.905Z,58.47
2019-04-23T14:09:24.156Z,54.43
2019-04-23T14:11:40.509Z,52.60
2019-04-23T14:14:38.874Z,56.90
2019-04-23T14:17:21.327Z,53.73
2019-04-23T14:19:16.450Z,53.13
2019-04-23T14:21:51.726Z,48.67
2019-04-23T14:27:02.995Z,47.40
2019-04-23T14:29:28.093Z,47.60
2019-04-23T14:32:07.230Z,49.07
2019-04-23T14:34:30.892Z,47.37
2019-04-23T14:39:32.085Z,48.13
2019-04-23T14:44:40.491Z,38.70
2019-04-23T14:47:24.279Z,33.87
2019-04-23T14:50:18.653Z,37.07
2019-04-23T14:55:35.423Z,37.40
2019-04-23T14:57:34.064Z,42.03
2019-04-23T15:00:03.385Z,42.87
2019-04-23T15:02:37.257Z,39.03
2019-04-23T15:05:09.682Z,41.47
2019-04-23T15:07:34.576Z,39.23
2019-04-23T15:10:08.611Z,45.90
2019-04-23T15:12:42.803Z,40.77
2019-04-23T15:17:41.262Z,38.43
2019-04-23T15:23:02.555Z,43.67
2019-04-23T15:25:25.475Z,35.90
2019-04-23T15:27:13.486Z,32.60
2019-04-23T15:30:17.533Z,36.10
2019-04-23T15:33:03.997Z,30.00
2019-04-23T15:40:25.186Z,31.40
2019-04-23T15:43:02.706Z,35.37
2019-04-23T15:45:35.450Z,31.93
2019-04-23T15:48:03.327Z,33.63
2019-04-23T15:55:33.804Z,36.80
2019-04-23T16:02:39.409Z,37.43
2019-04-23T16:05:10.186Z,38.13
2019-04-23T16:08:01.648Z,31.67
2019-04-23T16:11:09.709Z,31.10
2019-04-23T16:13:29.378Z,32.37
2019-04-23T16:15:50.438Z,31.00
2019-04-23T16:18:42.144Z,32.47
2019-04-23T16:21:31.871Z,30.83
2019-04-23T16:23:41.263Z,29.50
2019-04-23T16:26:14.267Z,28.13
2019-04-23T16:29:01.383Z,32.60
2019-04-23T16:31:23.830Z,29.43
2019-04-23T16:33:54.444Z,29.53
2019-04-23T16:36:23.195Z,27.43
2019-04-23T16:38:55.643Z,25.30
2019-04-23T16:41:24.339Z,28.67
2019-04-23T16:43:57.168Z,29.57
2019-04-23T16:46:25.277Z,26.73
2019-04-23T16:49:10.442Z,26.87
2019-04-23T16:51:29.570Z,24.20
2019-04-23T16:54:06.000Z,26.13
2019-04-23T16:56:42.011Z,27.67
2019-04-23T16:59:16.881Z,26.90
2019-04-23T17:01:34.549Z,23.07
2019-04-23T17:04:09.823Z,23.53
2019-04-23T17:06:35.830Z,25.23
2019-04-23T17:09:14.935Z,26.33
2019-04-23T17:11:48.408Z,22.77
2019-04-23T17:14:15.518Z,23.70
2019-04-23T17:16:38.225Z,27.57
2019-04-23T17:19:16.447Z,25.10
2019-04-23T17:21:44.073Z,22.30
2019-04-23T17:24:21.256Z,24.30
2019-04-23T17:26:45.966Z,24.37
2019-04-23T17:29:21.744Z,24.77
2019-04-23T17:31:45.205Z,20.03
2019-04-23T17:34:30.504Z,20.97
2019-04-23T17:37:07.325Z,24.37
2019-04-23T17:40:17.520Z,21.87
2019-04-23T17:42:46.329Z,20.57
2019-04-23T17:50:53.184Z,24.93
2019-04-23T17:53:22.274Z,21.67
2019-04-23T17:56:01.061Z,21.43
2019-04-23T18:01:16.138Z,20.40
2019-04-23T18:03:41.629Z,21.57
2019-04-23T18:06:14.214Z,20.43
2019-04-23T18:08:32.697Z,21.50
2019-04-23T18:11:14.374Z,22.47
2019-04-23T18:13:45.759Z,22.30
2019-04-23T18:16:16.193Z,25.03
2019-04-23T18:18:46.346Z,19.83
2019-04-23T18:21:46.227Z,21.77
2019-04-23T18:24:27.533Z,22.10
2019-04-23T18:26:59.753Z,21.87
2019-04-23T18:32:25.745Z,20.70
2019-04-23T18:39:52.048Z,25.07
2019-04-23T18:42:34.357Z,22.17
2019-04-23T18:50:02.313Z,20.03
2019-04-23T18:52:41.189Z,19.97
2019-04-23T18:55:09.107Z,21.20
2019-04-23T18:57:38.330Z,21.73
2019-04-23T19:00:07.029Z,22.33
2019-04-23T19:03:04.145Z,23.53
2019-04-23T19:05:31.386Z,24.67
2019-04-23T19:08:23.479Z,20.37
2019-04-23T19:11:05.056Z,22.80
2019-04-23T19:13:32.887Z,21.43
2019-04-23T19:16:01.729Z,21.33
2019-04-23T19:23:52.830Z,22.40
2019-04-23T19:26:15.477Z,23.03
2019-04-23T19:28:47.415Z,23.00
2019-04-23T19:34:17.545Z,23.63
2019-04-23T19:36:39.947Z,22.63
2019-04-23T19:39:14.846Z,22.20
2019-04-23T19:41:49.509Z,21.83
2019-04-23T19:44:10.375Z,23.93
2019-04-23T19:49:11.283Z,22.30
2019-04-23T19:51:49.405Z,20.50
2019-04-23T19:54:37.729Z,28.13
2019-04-23T19:56:50.906Z,31.17
2019-04-23T19:59:15.335Z,26.60
2019-04-23T20:01:46.860Z,27.00
2019-04-23T20:04:18.108Z,23.57
2019-04-23T20:09:38.643Z,23.50
2019-04-23T20:14:29.165Z,27.43
2019-04-23T20:19:30.124Z,28.33
2019-04-23T20:24:37.647Z,27.20
2019-04-23T20:27:06.006Z,22.50
2019-04-23T20:30:15.551Z,24.40
2019-04-23T20:35:16.476Z,27.00
2019-04-23T20:38:22.222Z,24.87
2019-04-23T20:43:09.777Z,27.10
2019-04-23T20:45:20.108Z,28.37
2019-04-23T20:50:26.179Z,24.00
2019-04-23T20:52:51.746Z,28.90
2019-04-23T20:55:39.145Z,22.53
2019-04-23T20:58:20.907Z,26.90
2019-04-23T21:01:22.253Z,26.40
2019-04-23T21:06:09.895Z,27.57
2019-04-23T21:09:08.103Z,23.10
2019-04-23T21:11:05.396Z,27.63
2019-04-23T21:14:01.847Z,23.43
2019-04-23T21:16:13.243Z,22.60
2019-04-23T21:18:44.826Z,42.33
2019-04-23T21:21:18.306Z,27.07
2019-04-23T21:23:50.430Z,25.90
2019-04-23T21:26:07.734Z,25.03
2019-04-23T21:28:55.699Z,24.30
2019-04-23T21:31:22.915Z,25.20
2019-04-23T21:34:04.476Z,23.43
2019-04-23T21:36:38.902Z,23.87
2019-04-23T21:40:02.587Z,24.13
2019-04-23T21:42:21.269Z,24.87
2019-04-23T21:44:55.124Z,26.80
2019-04-23T21:47:36.830Z,31.90
2019-04-23T21:50:03.159Z,26.70
2019-04-23T21:52:30.686Z,21.27
2019-04-23T21:54:57.109Z,22.67
2019-04-23T21:57:37.449Z,22.63
2019-04-23T22:00:00.600Z,22.50
2019-04-23T22:02:38.287Z,19.37
2019-04-23T22:05:01.210Z,25.47
2019-04-23T22:07:46.037Z,26.77
2019-04-23T22:10:05.919Z,24.37
2019-04-23T22:12:48.784Z,26.23
2019-04-23T22:15:04.652Z,31.33
2019-04-23T22:17:42.780Z,29.53
2019-04-23T22:20:21.370Z,24.83
2019-04-23T22:22:56.926Z,29.87
2019-04-23T22:25:03.024Z,24.23
2019-04-23T22:27:49.218Z,23.37
2019-04-23T22:30:14.522Z,30.80
2019-04-23T22:32:56.344Z,20.87
2019-04-23T22:35:10.513Z,24.77
2019-04-23T22:38:02.414Z,23.63
2019-04-23T22:40:14.866Z,29.87
2019-04-23T22:45:43.213Z,27.67
2019-04-23T22:48:01.481Z,27.13
2019-04-23T22:50:47.312Z,23.17
2019-04-23T22:55:49.411Z,27.40
2019-04-23T22:58:08.186Z,23.70
2019-04-23T23:00:24.946Z,24.90
2019-04-23T23:03:23.281Z,22.57
2019-04-23T23:08:20.267Z,27.87
2019-04-23T23:10:57.283Z,21.53
2019-04-23T23:13:32.814Z,27.30
2019-04-23T23:16:01.093Z,19.97
2019-04-23T23:18:35.663Z,25.30
2019-04-23T23:23:30.073Z,28.67
2019-04-23T23:26:15.639Z,21.93
2019-04-23T23:31:07.062Z,26.23
2019-04-23T23:33:43.141Z,33.57
2019-04-23T23:38:52.372Z,25.33
2019-04-23T23:43:54.425Z,26.53
2019-04-23T23:46:20.802Z,29.83
2019-04-23T23:48:48.475Z,26.10
2019-04-23T23:51:21.861Z,26.70
2019-04-23T23:58:57.006Z,28.83
